createdAt,value
2022-08-30T00:01:38.416Z,17.00
2022-08-30T00:06:16.591Z,16.90
2022-08-30T00:10:21.427Z,16.90
2022-08-30T00:14:26.285Z,16.90
2022-08-30T00:19:03.221Z,16.90
2022-08-30T00:23:07.042Z,16.80
2022-08-30T00:27:45.801Z,16.80
2022-08-30T00:31:49.917Z,16.70
2022-08-30T00:35:53.050Z,16.60
2022-08-30T00:39:56.213Z,16.60
2022-08-30T00:44:00.913Z,16.60
2022-08-30T00:48:34.549Z,16.50
2022-08-30T00:52:41.276Z,16.60
2022-08-30T00:56:44.643Z,16.50
2022-08-30T01:01:23.063Z,16.50
2022-08-30T01:05:26.259Z,16.50
2022-08-30T01:10:04.045Z,16.40
2022-08-30T01:14:08.957Z,16.40
2022-08-30T01:18:17.563Z,16.40
2022-08-30T01:22:26.745Z,16.30
2022-08-30T01:26:32.005Z,16.30
2022-08-30T01:31:06.157Z,16.10
2022-08-30T01:35:10.285Z,16.00
2022-08-30T01:39:15.862Z,16.00
2022-08-30T01:43:21.041Z,16.00
2022-08-30T01:47:24.250Z,16.00
2022-08-30T01:52:01.579Z,15.90
2022-08-30T01:56:05.635Z,15.90
2022-08-30T02:00:41.307Z,15.80
2022-08-30T02:04:45.091Z,15.70
2022-08-30T02:08:48.560Z,15.60
2022-08-30T02:13:22.407Z,15.50
2022-08-30T02:17:27.158Z,15.50
2022-08-30T02:22:00.904Z,15.40
2022-08-30T02:26:37.971Z,15.40
2022-08-30T02:30:41.762Z,15.50
2022-08-30T02:34:47.382Z,15.50
2022-08-30T02:38:51.550Z,15.50
2022-08-30T02:42:54.762Z,15.40
2022-08-30T02:46:57.942Z,15.40
2022-08-30T02:51:11.527Z,15.40
2022-08-30T02:55:14.871Z,15.40
2022-08-30T02:59:19.181Z,15.30
2022-08-30T03:03:52.927Z,15.40
2022-08-30T03:07:57.726Z,15.40
2022-08-30T03:12:32.626Z,15.30
2022-08-30T03:16:37.921Z,15.30
2022-08-30T03:21:15.610Z,15.20
2022-08-30T03:25:53.934Z,15.20
2022-08-30T03:30:27.811Z,15.20
2022-08-30T03:35:05.063Z,15.10
2022-08-30T03:39:09.253Z,15.10
2022-08-30T03:43:47.482Z,15.10
2022-08-30T03:48:21.847Z,15.10
2022-08-30T03:52:25.087Z,15.20
2022-08-30T03:57:01.905Z,15.30
2022-08-30T04:01:42.119Z,15.50
2022-08-30T04:05:46.244Z,15.60
2022-08-30T04:10:22.109Z,15.60
2022-08-30T04:14:58.794Z,15.60
2022-08-30T04:19:37.267Z,15.70
2022-08-30T04:23:40.373Z,15.60
2022-08-30T04:27:43.541Z,15.50
2022-08-30T04:32:20.793Z,15.50
2022-08-30T04:36:57.567Z,15.40
2022-08-30T04:41:40.991Z,15.40
2022-08-30T04:46:13.011Z,15.40
2022-08-30T04:50:50.193Z,15.40
2022-08-30T04:54:55.866Z,15.50
2022-08-30T04:59:31.338Z,15.60
2022-08-30T05:03:35.414Z,15.50
2022-08-30T05:08:10.256Z,15.60
2022-08-30T05:12:13.397Z,16.00
2022-08-30T05:16:19.670Z,16.30
2022-08-30T05:21:04.016Z,16.50
2022-08-30T05:25:08.145Z,16.60
2022-08-30T05:29:11.334Z,16.80
2022-08-30T05:33:15.883Z,16.90
2022-08-30T05:37:19.118Z,17.00
2022-08-30T05:41:23.285Z,17.10
2022-08-30T05:45:29.602Z,17.10
2022-08-30T05:49:34.140Z,17.30
2022-08-30T05:53:37.733Z,17.60
2022-08-30T05:57:42.393Z,17.90
2022-08-30T06:01:47.324Z,18.10
2022-08-30T06:05:52.090Z,18.50
2022-08-30T06:10:25.822Z,18.70
2022-08-30T06:14:28.976Z,18.90
2022-08-30T06:18:32.687Z,19.00
2022-08-30T06:23:07.997Z,19.00
2022-08-30T06:27:12.172Z,19.20
2022-08-30T06:31:46.109Z,19.40
2022-08-30T06:35:58.748Z,19.70
2022-08-30T06:40:05.076Z,20.00
2022-08-30T06:44:39.358Z,20.10
2022-08-30T06:48:49.550Z,20.40
2022-08-30T06:52:53.389Z,20.60
2022-08-30T06:57:28.960Z,20.80
2022-08-30T07:01:32.339Z,21.10
2022-08-30T07:05:35.494Z,21.50
2022-08-30T07:10:12.256Z,21.80
2022-08-30T07:14:16.809Z,22.00
2022-08-30T07:18:55.061Z,22.40
2022-08-30T07:22:58.266Z,22.80
2022-08-30T07:27:01.900Z,23.50
2022-08-30T07:35:14.676Z,25.00
2022-08-30T07:39:51.763Z,25.10
2022-08-30T07:43:55.733Z,25.40
2022-08-30T07:48:31.049Z,26.20
2022-08-30T07:52:34.419Z,27.20
2022-08-30T07:56:37.660Z,27.80
2022-08-30T08:00:40.749Z,28.60
2022-08-30T08:05:20.156Z,28.80
2022-08-30T08:09:26.251Z,29.60
2022-08-30T08:13:54.008Z,30.00
2022-08-30T08:17:57.513Z,30.00
2022-08-30T08:22:20.521Z,30.10
2022-08-30T08:26:24.822Z,30.10
2022-08-30T08:31:01.935Z,30.50
2022-08-30T08:35:38.826Z,30.30
2022-08-30T08:39:43.356Z,30.30
2022-08-30T08:44:24.247Z,30.50
2022-08-30T08:48:51.967Z,30.60
2022-08-30T08:53:36.010Z,31.00
2022-08-30T08:57:42.691Z,31.20
2022-08-30T09:01:45.974Z,31.30
2022-08-30T09:05:50.322Z,31.30
2022-08-30T09:09:53.494Z,31.70
2022-08-30T09:14:19.241Z,31.70
2022-08-30T09:18:56.125Z,31.80
2022-08-30T09:23:12.741Z,32.10
2022-08-30T09:27:27.725Z,32.40
2022-08-30T09:32:22.441Z,32.80
2022-08-30T09:36:26.028Z,33.10
2022-08-30T09:40:56.413Z,33.50
2022-08-30T09:45:11.856Z,33.80
2022-08-30T09:49:37.925Z,33.70
2022-08-30T09:54:16.518Z,33.60
2022-08-30T09:58:30.009Z,34.20
2022-08-30T10:03:30.057Z,34.10
2022-08-30T10:07:48.158Z,33.60
2022-08-30T10:12:16.813Z,33.90
2022-08-30T10:16:35.421Z,34.60
2022-08-30T10:21:02.277Z,34.80
2022-08-30T10:25:33.450Z,34.20
2022-08-30T10:29:44.202Z,34.40
2022-08-30T10:33:55.134Z,35.50
2022-08-30T10:38:24.983Z,36.10
2022-08-30T10:42:39.411Z,35.40
2022-08-30T10:47:10.167Z,34.40
2022-08-30T10:51:21.722Z,33.80
2022-08-30T10:55:50.393Z,33.30
2022-08-30T10:59:59.722Z,32.70
2022-08-30T11:09:50.354Z,31.60
2022-08-30T11:13:57.143Z,30.80
2022-08-30T11:18:05.882Z,29.80
2022-08-30T11:22:39.309Z,29.30
2022-08-30T11:27:39.616Z,28.90
2022-08-30T11:31:43.655Z,28.60
2022-08-30T11:35:50.511Z,28.50
2022-08-30T11:39:56.384Z,28.50
2022-08-30T11:44:28.841Z,28.60
2022-08-30T11:48:54.493Z,28.80
2022-08-30T11:53:04.007Z,29.00
2022-08-30T11:57:34.598Z,29.30
2022-08-30T12:01:50.192Z,29.80
2022-08-30T12:05:59.625Z,30.10
2022-08-30T12:10:38.303Z,30.50
2022-08-30T12:14:52.151Z,30.60
2022-08-30T12:19:00.961Z,30.80
2022-08-30T12:23:19.106Z,30.70
2022-08-30T12:27:40.389Z,30.60
2022-08-30T12:31:47.376Z,30.80
2022-08-30T12:36:33.444Z,30.80
2022-08-30T12:40:36.958Z,31.10
2022-08-30T12:45:16.323Z,31.50
2022-08-30T12:49:21.602Z,31.50
2022-08-30T12:53:29.846Z,31.20
2022-08-30T12:58:02.277Z,31.40
2022-08-30T13:02:44.949Z,31.50
2022-08-30T13:06:52.642Z,31.70
2022-08-30T13:11:08.057Z,31.60
2022-08-30T13:15:34.086Z,31.50
2022-08-30T13:20:22.330Z,31.70
2022-08-30T13:24:26.370Z,31.70
2022-08-30T13:28:31.043Z,31.80
2022-08-30T13:33:11.521Z,32.30
2022-08-30T13:37:47.307Z,32.80
2022-08-30T13:41:54.269Z,33.50
2022-08-30T13:46:32.887Z,33.20
2022-08-30T13:50:36.164Z,32.20
2022-08-30T13:55:12.980Z,31.20
2022-08-30T13:59:50.965Z,30.70
2022-08-30T14:13:31.639Z,31.10
2022-08-30T14:18:09.260Z,31.10
2022-08-30T14:22:45.224Z,31.40
2022-08-30T14:27:21.257Z,31.90
2022-08-30T14:31:56.287Z,31.70
2022-08-30T14:36:33.477Z,31.60
2022-08-30T14:40:57.353Z,31.40
2022-08-30T14:45:31.410Z,31.20
2022-08-30T14:50:09.045Z,30.70
2022-08-30T14:54:12.619Z,30.50
2022-08-30T14:58:35.933Z,30.10
2022-08-30T15:03:13.275Z,29.80
2022-08-30T15:07:53.014Z,29.60
2022-08-30T15:12:26.693Z,29.40
2022-08-30T15:17:04.138Z,29.20
2022-08-30T15:21:41.731Z,29.00
2022-08-30T15:26:17.617Z,28.90
2022-08-30T15:30:51.747Z,29.00
2022-08-30T15:35:28.884Z,29.20
2022-08-30T15:40:08.085Z,29.50
2022-08-30T15:44:13.602Z,29.80
2022-08-30T15:48:48.501Z,30.00
2022-08-30T15:53:22.398Z,30.00
2022-08-30T15:58:00.014Z,30.00
2022-08-30T16:02:38.609Z,29.90
2022-08-30T16:07:13.432Z,29.50
2022-08-30T16:11:50.247Z,29.20
2022-08-30T16:16:27.730Z,29.00
2022-08-30T16:20:34.656Z,28.70
2022-08-30T16:25:05.968Z,28.60
2022-08-30T16:29:40.886Z,28.30
2022-08-30T16:33:45.036Z,28.20
2022-08-30T16:37:49.943Z,28.10
2022-08-30T16:42:24.588Z,27.90
2022-08-30T16:47:01.800Z,28.10
2022-08-30T16:51:39.349Z,28.40
2022-08-30T16:56:18.586Z,28.50
2022-08-30T17:00:52.674Z,28.40
2022-08-30T17:05:29.883Z,28.20
2022-08-30T17:09:33.107Z,27.90
2022-08-30T17:13:38.529Z,27.70
2022-08-30T17:17:43.162Z,27.30
2022-08-30T17:22:17.138Z,27.10
2022-08-30T17:26:54.603Z,26.80
2022-08-30T17:31:32.889Z,26.60
2022-08-30T17:36:07.638Z,26.30
2022-08-30T17:40:14.710Z,26.10
2022-08-30T17:44:45.994Z,25.80
2022-08-30T17:49:24.730Z,25.60
2022-08-30T17:53:59.241Z,25.30
2022-08-30T17:58:02.347Z,25.10
2022-08-30T18:02:36.252Z,24.80
2022-08-30T18:06:41.002Z,24.70
2022-08-30T18:11:13.197Z,24.50
2022-08-30T18:15:16.339Z,24.30
2022-08-30T18:19:51.861Z,24.00
2022-08-30T18:24:28.884Z,23.80
2022-08-30T18:29:07.162Z,23.60
2022-08-30T18:33:11.716Z,23.50
2022-08-30T18:37:49.543Z,23.30
2022-08-30T18:42:11.825Z,23.20
2022-08-30T18:46:56.754Z,22.90
2022-08-30T18:51:25.323Z,22.70
2022-08-30T18:56:00.462Z,22.70
2022-08-30T19:00:37.741Z,22.70
2022-08-30T19:05:17.069Z,22.60
2022-08-30T19:09:54.415Z,22.50
2022-08-30T19:14:03.144Z,22.50
2022-08-30T19:18:17.201Z,22.40
2022-08-30T19:23:08.545Z,22.30
2022-08-30T19:27:07.182Z,22.30
2022-08-30T19:31:10.561Z,22.20
2022-08-30T19:35:50.983Z,22.10
2022-08-30T19:40:23.881Z,22.00
2022-08-30T19:45:02.535Z,21.80
2022-08-30T19:49:08.602Z,21.60
2022-08-30T19:53:15.262Z,21.40
2022-08-30T19:57:50.839Z,21.20
2022-08-30T20:02:24.572Z,21.30
2022-08-30T20:07:01.228Z,21.30
2022-08-30T20:11:39.014Z,21.30
2022-08-30T20:16:15.713Z,21.30
2022-08-30T20:20:50.000Z,21.20
2022-08-30T20:25:27.338Z,21.20
2022-08-30T20:30:05.438Z,21.20
2022-08-30T20:34:10.233Z,21.20
2022-08-30T20:38:44.002Z,21.10
2022-08-30T20:42:51.132Z,21.00
2022-08-30T20:46:54.239Z,21.00
2022-08-30T20:50:58.796Z,21.00
2022-08-30T20:55:32.313Z,20.90
2022-08-30T20:59:36.579Z,20.80
2022-08-30T21:04:10.458Z,20.70
2022-08-30T21:08:15.004Z,20.60
2022-08-30T21:12:18.124Z,20.60
2022-08-30T21:16:22.123Z,20.50
2022-08-30T21:20:56.500Z,20.50
2022-08-30T21:25:01.743Z,20.40
2022-08-30T21:29:06.696Z,20.40
2022-08-30T21:33:10.938Z,20.30
2022-08-30T21:37:14.019Z,20.20
2022-08-30T21:41:50.825Z,20.20
2022-08-30T21:45:55.497Z,20.20
2022-08-30T21:49:58.868Z,20.20
2022-08-30T21:54:36.085Z,20.10
2022-08-30T21:58:39.588Z,20.10
2022-08-30T22:03:17.997Z,20.00
2022-08-30T22:07:21.686Z,19.90
2022-08-30T22:11:58.934Z,19.80
2022-08-30T22:16:02.148Z,19.80
2022-08-30T22:20:38.707Z,19.70
2022-08-30T22:24:43.418Z,19.70
2022-08-30T22:28:46.701Z,19.70
2022-08-30T22:32:49.940Z,19.70
2022-08-30T22:36:55.788Z,19.70
2022-08-30T22:41:00.319Z,19.70
2022-08-30T22:45:03.696Z,19.70
2022-08-30T22:49:08.880Z,19.70
2022-08-30T22:53:21.997Z,19.70
2022-08-30T22:57:26.975Z,19.70
2022-08-30T23:02:00.882Z,19.70
2022-08-30T23:06:49.842Z,19.60
2022-08-30T23:10:53.443Z,19.50
2022-08-30T23:14:57.985Z,19.50
2022-08-30T23:19:32.045Z,19.40
2022-08-30T23:23:52.586Z,19.40
2022-08-30T23:28:17.477Z,19.40
2022-08-30T23:32:42.503Z,19.30
2022-08-30T23:37:18.634Z,19.20
2022-08-30T23:41:39.135Z,19.10
2022-08-30T23:45:59.519Z,19.00
2022-08-30T23:55:37.033Z,18.80
